Time;durP1;ratioP1;P1;durP2;ratioP2;P2;SDS_P1;SDS_P2;PMS_P1;PMS_P2;Temp;Humidity;BMP_temperature;BMP_pressure;BME280_temperature;BME280_humidity;BME280_pressure;Samples;Min_cycle;Max_cycle;Signal;HPM_P1;HPM_P2
2021/07/17 00:11:17;;;;;;;0.20;0.20;;;;;;;16.35;70.97;92715.41;6019266;23;20594;-95
2021/07/17 00:22:23;;;;;;;0.40;0.40;;;;;;;15.93;71.67;92659.75;6046758;23;20027;-95
2021/07/17 00:34:16;;;;;;;;;;;;;;;;;;;;;
2021/07/17 00:38:22;;;;;;;;;;;;;;;;;;;;;
2021/07/17 00:41:53;;;;;;;;;;;;;;;;;;;;;
2021/07/17 00:46:10;;;;;;;0.30;0.30;;;;;;;16.11;65.86;92654.44;6107367;23;20077;-95
2021/07/17 00:52:48;;;;;;;0.20;0.20;;;;;;;16.05;65.10;92640.63;6210603;23;20051;-95
2021/07/17 01:00:34;;;;;;;;;;;;;;;;;;;;;
2021/07/17 01:07:36;;;;;;;0.38;0.38;;;;;;;16.32;62.61;92643.94;5996180;23;20075;-95
2021/07/17 01:25:42;;;;;;;0.20;0.20;;;;;;;16.70;55.94;92637.84;6136652;23;20103;-95
2021/07/17 01:28:52;;;;;;;0.20;0.20;;;;;;;16.89;57.11;92664.69;6218891;23;20107;-95
2021/07/17 01:32:47;;;;;;;;;;;;;;;;;;;;;
2021/07/17 01:47:11;;;;;;;0.20;0.20;;;;;;;16.71;53.64;92615.63;6154249;23;20027;-94
2021/07/17 01:50:30;;;;;;;0.20;0.20;;;;;;;16.60;53.10;92605.41;6249142;23;20044;-95
2021/07/17 01:53:25;;;;;;;0.30;0.30;;;;;;;16.92;54.42;92650.03;6224637;23;20036;-95
2021/07/17 02:12:01;;;;;;;;;;;;;;;;;;;;;
2021/07/17 02:15:24;;;;;;;0.20;0.20;;;;;;;17.08;51.05;92607.94;5994265;23;20027;-94
2021/07/17 02:23:27;;;;;;;;;;;;;;;;;;;;;
2021/07/17 02:30:36;;;;;;;0.35;0.35;;;;;;;16.86;53.03;92604.50;6002206;23;20035;-95
2021/07/17 02:33:56;;;;;;;;;;;;;;;;;;;;;
2021/07/17 02:54:13;;;;;;;;;;;;;;;;;;;;;
2021/07/17 03:18:49;;;;;;;0.10;0.10;;;;;;;16.90;51.36;92578.97;6124263;23;20030;-94
2021/07/17 03:26:12;;;;;;;;;;;;;;;;;;;;;
2021/07/17 03:32:58;;;;;;;0.17;0.17;;;;;;;16.99;50.97;92568.31;6175883;23;20192;-94
2021/07/17 03:54:49;;;;;;;0.20;0.20;;;;;;;16.75;52.93;92561.00;6201530;23;20028;-94
2021/07/17 03:58:39;;;;;;;0.32;0.30;;;;;;;16.68;53.04;92555.47;6190322;23;20080;-94
2021/07/17 04:06:35;;;;;;;0.30;0.30;;;;;;;16.74;52.42;92560.22;6084296;23;20023;-95
2021/07/17 04:10:37;;;;;;;;;;;;;;;;;;;;;
2021/07/17 04:14:10;;;;;;;;;;;;;;;;;;;;;
2021/07/17 04:21:19;;;;;;;;;;;;;;;;;;;;;
2021/07/17 04:25:34;;;;;;;;;;;;;;;;;;;;;
2021/07/17 04:40:08;;;;;;;0.20;0.20;;;;;;;16.65;52.83;92562.16;6011229;23;20528;-95
2021/07/17 04:43:10;;;;;;;;;;;;;;;;;;;;;
2021/07/17 04:46:04;;;;;;;0.20;0.20;;;;;;;16.65;53.67;92552.38;6166365;23;20508;-93
2021/07/17 04:49:30;;;;;;;;;;;;;;;;;;;;;
2021/07/17 04:52:49;;;;;;;;;;;;;;;;;;;;;
2021/07/17 04:56:04;;;;;;;;;;;;;;;;;;;;;
2021/07/17 04:59:35;;;;;;;0.20;0.20;;;;;;;16.44;56.53;92528.56;6165348;23;20079;-94
2021/07/17 05:02:34;;;;;;;;;;;;;;;;;;;;;
2021/07/17 05:08:28;;;;;;;0.20;0.20;;;;;;;16.65;53.22;92525.94;6158735;23;20088;-93
2021/07/17 05:11:33;;;;;;;0.20;0.20;;;;;;;17.13;52.20;92582.03;6159217;23;20079;-94
2021/07/17 05:14:48;;;;;;;;;;;;;;;;;;;;;
2021/07/17 05:21:39;;;;;;;0.20;0.20;;;;;;;17.57;50.18;92531.38;6157115;23;20100;-93
2021/07/17 05:24:45;;;;;;;;;;;;;;;;;;;;;
2021/07/17 05:27:50;;;;;;;;;;;;;;;;;;;;;
2021/07/17 05:30:37;;;;;;;;;;;;;;;;;;;;;
2021/07/17 05:33:35;;;;;;;;;;;;;;;;;;;;;
2021/07/17 05:36:26;;;;;;;0.22;0.22;;;;;;;18.31;48.81;92521.63;6183422;23;20580;-94
2021/07/17 05:39:42;;;;;;;0.30;0.30;;;;;;;18.77;48.86;92569.97;6163795;23;20319;-93
2021/07/17 05:46:36;;;;;;;;;;;;;;;;;;;;;
2021/07/17 05:53:41;;;;;;;;;;;;;;;;;;;;;
2021/07/17 06:00:42;;;;;;;0.40;0.40;;;;;;;23.48;37.88;92539.19;6157198;23;20021;-94
2021/07/17 06:03:52;;;;;;;0.45;0.45;;;;;;;26.16;32.97;92519.72;6157063;23;20017;-94
2021/07/17 06:06:36;;;;;;;0.65;0.65;;;;;;;28.27;30.37;92525.59;6130345;23;20083;-95
2021/07/17 06:09:47;;;;;;;;;;;;;;;;;;;;;
2021/07/17 06:13:00;;;;;;;;;;;;;;;;;;;;;
2021/07/17 06:16:14;;;;;;;0.80;0.80;;;;;;;31.42;25.27;92521.41;6183125;23;20532;-95
2021/07/17 06:22:49;;;;;;;0.90;0.90;;;;;;;33.21;22.90;92529.34;6090564;23;20105;-94
2021/07/17 06:26:00;;;;;;;0.90;0.90;;;;;;;33.71;23.06;92545.03;6070928;23;20014;-95
2021/07/17 06:33:00;;;;;;;0.85;0.85;;;;;;;31.56;24.30;92504.13;6165828;23;20017;-94
2021/07/17 06:40:06;;;;;;;0.50;0.50;;;;;;;30.23;26.22;92516.47;6065099;23;20042;-94
2021/07/17 06:46:48;;;;;;;0.98;0.50;;;;;;;33.03;23.74;92510.78;6172064;23;20032;-94
2021/07/17 06:49:40;;;;;;;0.40;0.40;;;;;;;32.28;25.27;92540.50;6158090;23;20025;-94
2021/07/17 06:52:26;;;;;;;;;;;;;;;;;;;;;
2021/07/17 06:55:19;;;;;;;;;;;;;;;;;;;;;
2021/07/17 06:58:08;;;;;;;;;;;;;;;;;;;;;
2021/07/17 07:01:15;;;;;;;0.20;0.20;;;;;;;26.41;32.94;92561.91;6159475;23;20021;-96
2021/07/17 07:08:02;;;;;;;0.20;0.20;;;;;;;23.75;36.25;92511.59;6153323;23;20555;-94
2021/07/17 07:11:24;;;;;;;;;;;;;;;;;;;;;
2021/07/17 07:17:40;;;;;;;0.30;0.30;;;;;;;24.84;37.17;92549.53;6153583;23;20017;-94
2021/07/17 07:20:24;;;;;;;0.40;0.40;;;;;;;24.94;36.70;92527.41;6137998;23;20017;-96
2021/07/17 07:23:26;;;;;;;0.30;0.30;;;;;;;25.42;36.05;92572.81;6162180;23;20124;-94
2021/07/17 07:26:53;;;;;;;0.25;0.25;;;;;;;24.96;36.77;92530.47;6148743;23;20021;-94
2021/07/17 07:30:25;;;;;;;;;;;;;;;;;;;;;
2021/07/17 07:32:48;;;;;;;0.20;0.20;;;;;;;24.96;36.71;92529.72;6179682;23;20037;-94
2021/07/17 07:35:56;;;;;;;0.30;0.30;;;;;;;25.68;36.17;92595.09;6159471;23;20097;-93
2021/07/17 07:39:19;;;;;;;0.30;0.30;;;;;;;25.34;36.34;92539.09;6154481;23;20432;-95
2021/07/17 07:42:31;;;;;;;0.20;0.20;;;;;;;25.83;36.38;92556.47;6185408;23;20032;-95
2021/07/17 07:45:04;;;;;;;0.22;0.22;;;;;;;25.53;35.32;92581.66;6189596;23;20048;-94
2021/07/17 07:48:42;;;;;;;;;;;;;;;;;;;;;
2021/07/17 07:51:55;;;;;;;0.30;0.30;;;;;;;25.04;37.38;92534.72;6164006;23;20013;-95
2021/07/17 07:58:31;;;;;;;0.40;0.40;;;;;;;25.39;36.90;92562.81;6171063;23;20479;-95
2021/07/17 08:01:17;;;;;;;0.38;0.38;;;;;;;25.59;36.97;92579.34;6164148;23;20056;-95
2021/07/17 08:04:19;;;;;;;;;;;;;;;;;;;;;
2021/07/17 08:10:24;;;;;;;;;;;;;;;;;;;;;
2021/07/17 08:13:06;;;;;;;0.43;0.43;;;;;;;26.41;35.18;92532.38;6182916;23;20017;-94
2021/07/17 08:15:54;;;;;;;;;;;;;;;;;;;;;
2021/07/17 08:18:34;;;;;;;0.25;0.25;;;;;;;25.80;35.02;92500.91;6156935;23;20028;-93
2021/07/17 08:21:08;;;;;;;0.32;0.32;;;;;;;26.29;35.23;92558.44;6157127;23;20048;-94
2021/07/17 08:24:16;;;;;;;;;;;;;;;;;;;;;
2021/07/17 08:26:50;;;;;;;0.55;0.55;;;;;;;26.33;35.39;92553.09;6161044;23;20084;-94
2021/07/17 08:35:43;;;;;;;;;;;;;;;;;;;;;
2021/07/17 08:38:51;;;;;;;0.73;0.55;;;;;;;26.09;33.18;92533.16;6163974;23;20069;-93
2021/07/17 08:41:29;;;;;;;0.30;0.30;;;;;;;26.03;36.00;92534.66;6158423;23;20021;-94
2021/07/17 08:44:11;;;;;;;0.50;0.50;;;;;;;26.42;34.94;92515.16;6157604;23;20013;-93
2021/07/17 08:47:30;;;;;;;0.35;0.35;;;;;;;26.34;33.40;92507.09;6145512;23;20338;-94
2021/07/17 08:50:25;;;;;;;;;;;;;;;;;;;;;
2021/07/17 08:53:17;;;;;;;;;;;;;;;;;;;;;
2021/07/17 08:56:08;;;;;;;0.40;0.40;;;;;;;26.15;34.03;92508.25;6182636;23;20021;-95
2021/07/17 08:59:21;;;;;;;;;;;;;;;;;;;;;
2021/07/17 09:02:22;;;;;;;0.22;0.22;;;;;;;26.13;35.26;92544.66;6163261;23;20100;-94
2021/07/17 09:05:05;;;;;;;0.20;0.20;;;;;;;26.21;33.67;92535.47;6181737;23;20017;-94
2021/07/17 09:07:45;;;;;;;0.32;0.32;;;;;;;26.25;33.70;92504.03;6112825;23;20037;-95
2021/07/17 09:10:43;;;;;;;;;;;;;;;;;;;;;
2021/07/17 09:14:02;;;;;;;0.50;0.50;;;;;;;27.05;32.43;92499.31;6180686;23;20051;-94
2021/07/17 09:25:01;;;;;;;0.88;0.80;;;;;;;27.79;32.47;92508.22;6098874;23;20014;-94
2021/07/17 09:27:50;;;;;;;;;;;;;;;;;;;;;
2021/07/17 09:31:05;;;;;;;0.47;0.47;;;;;;;27.65;30.71;92492.94;6093165;23;20117;-95
2021/07/17 09:37:22;;;;;;;;;;;;;;;;;;;;;
2021/07/17 09:41:33;;;;;;;;;;;;;;;;;;;;;
2021/07/17 09:53:09;;;;;;;0.47;0.47;;;;;;;27.75;32.50;92534.34;6015624;23;20031;-95
2021/07/17 09:56:38;;;;;;;;;;;;;;;;;;;;;
2021/07/17 09:59:37;;;;;;;0.30;0.30;;;;;;;27.34;31.29;92481.94;5943531;23;20015;-95
2021/07/17 10:03:03;;;;;;;;;;;;;;;;;;;;;
2021/07/17 10:11:11;;;;;;;;;;;;;;;;;;;;;
2021/07/17 10:18:11;;;;;;;;;;;;;;;;;;;;;
2021/07/17 10:20:53;;;;;;;0.75;0.50;;;;;;;28.18;29.77;92453.38;6039638;23;20050;-93
2021/07/17 10:24:02;;;;;;;;;;;;;;;;;;;;;
2021/07/17 10:27:21;;;;;;;0.55;0.55;;;;;;;28.21;29.24;92476.78;6066328;23;20312;-94
2021/07/17 10:30:06;;;;;;;0.38;0.38;;;;;;;28.37;29.79;92509.34;6043645;23;20105;-95
2021/07/17 10:32:58;;;;;;;0.38;0.38;;;;;;;28.05;30.33;92465.78;6068068;23;20038;-94
2021/07/17 10:36:10;;;;;;;;;;;;;;;;;;;;;
2021/07/17 10:39:13;;;;;;;0.70;0.70;;;;;;;27.82;31.04;92469.75;6154556;23;20032;-94
2021/07/17 10:49:21;;;;;;;0.38;0.38;;;;;;;26.85;30.75;92525.84;6157436;23;20018;-95
2021/07/17 10:56:32;;;;;;;0.43;0.40;;;;;;;26.34;32.59;92485.63;6125997;23;20104;-95
2021/07/17 10:59:28;;;;;;;;;;;;;;;;;;;;;
2021/07/17 11:02:48;;;;;;;0.38;0.38;;;;;;;26.81;33.75;92479.44;6140518;23;20018;-93
2021/07/17 11:05:47;;;;;;;;;;;;;;;;;;;;;
2021/07/17 11:09:24;;;;;;;0.75;0.70;;;;;;;28.11;30.92;92464.22;6169202;23;20084;-93
2021/07/17 11:12:26;;;;;;;0.45;0.45;;;;;;;28.18;32.90;92507.94;6076783;22;20123;-78
2021/07/17 11:14:53;;;;;;;0.68;0.60;;;;;;;28.23;30.20;92504.06;6227428;23;20483;-76
2021/07/17 11:17:43;;;;;;;0.52;0.52;;;;;;;28.03;30.92;92507.31;6214709;23;20015;-77
2021/07/17 11:20:16;;;;;;;0.73;0.70;;;;;;;27.47;33.37;92521.81;6241129;23;20439;-77
2021/07/17 11:22:41;;;;;;;0.40;0.40;;;;;;;27.89;30.93;92512.00;6212991;23;20009;-77
2021/07/17 11:25:08;;;;;;;0.47;0.47;;;;;;;28.13;31.02;92510.31;6210756;23;20333;-76
2021/07/17 11:27:40;;;;;;;0.55;0.47;;;;;;;28.14;29.84;92506.44;6186243;23;20042;-76
2021/07/17 11:30:18;;;;;;;0.30;0.30;;;;;;;27.91;30.22;92510.44;6161303;23;20104;-78
2021/07/17 11:33:05;;;;;;;0.30;0.30;;;;;;;27.68;33.14;92512.88;6210626;23;20016;-77
2021/07/17 11:35:31;;;;;;;0.85;0.85;;;;;;;27.69;31.03;92520.53;6208752;23;20456;-76
2021/07/17 11:37:58;;;;;;;0.47;0.47;;;;;;;27.19;31.36;92516.13;6212048;23;20040;-76
2021/07/17 11:40:24;;;;;;;0.55;0.55;;;;;;;27.46;33.04;92512.22;6210628;23;20008;-76
2021/07/17 11:42:50;;;;;;;0.55;0.55;;;;;;;27.50;33.37;92519.13;6183666;23;20004;-76
2021/07/17 11:45:16;;;;;;;1.58;0.60;;;;;;;27.29;34.20;92508.44;6159779;23;20371;-77
2021/07/17 11:47:43;;;;;;;0.43;0.40;;;;;;;27.30;30.79;92508.06;6185549;23;20406;-76
2021/07/17 11:50:09;;;;;;;0.60;0.60;;;;;;;27.04;32.23;92497.78;6212657;23;20075;-76
2021/07/17 11:52:37;;;;;;;0.50;0.50;;;;;;;27.02;34.18;92500.88;6160679;23;20024;-77
2021/07/17 11:55:05;;;;;;;0.45;0.45;;;;;;;26.95;31.70;92495.50;6212316;23;20135;-76
2021/07/17 11:57:32;;;;;;;0.40;0.40;;;;;;;27.55;31.26;92493.75;6211851;23;20016;-76
2021/07/17 12:00:03;;;;;;;0.60;0.60;;;;;;;27.40;32.98;92503.78;6212168;23;20020;-78
2021/07/17 12:02:38;;;;;;;1.85;0.85;;;;;;;27.73;34.20;92499.03;6211293;23;20421;-78
2021/07/17 12:05:17;;;;;;;0.55;0.55;;;;;;;28.10;33.39;92501.13;6185494;23;20052;-78
2021/07/17 12:07:44;;;;;;;0.50;0.50;;;;;;;28.09;31.20;92496.13;6160658;23;20030;-78
2021/07/17 12:10:15;;;;;;;0.57;0.57;;;;;;;28.40;31.31;92492.41;6185410;23;20016;-78
2021/07/17 12:12:51;;;;;;;0.47;0.47;;;;;;;28.66;32.00;92487.56;6212028;23;20021;-77
2021/07/17 12:15:20;;;;;;;1.10;0.57;;;;;;;28.92;32.11;92496.16;6213200;23;20024;-78
2021/07/17 12:18:00;;;;;;;0.30;0.30;;;;;;;29.40;31.12;92501.41;6209076;23;20024;-78
2021/07/17 12:20:38;;;;;;;0.77;0.77;;;;;;;29.64;30.45;92486.06;6211810;23;20069;-78
2021/07/17 12:23:14;;;;;;;0.73;0.73;;;;;;;28.92;30.13;92493.47;6213606;23;20008;-78
2021/07/17 12:25:51;;;;;;;0.73;0.73;;;;;;;29.40;29.06;92500.66;6212714;23;20459;-78
2021/07/17 12:28:39;;;;;;;0.60;0.60;;;;;;;29.31;28.78;92490.34;6218299;23;20091;-79
2021/07/17 12:31:10;;;;;;;1.48;1.00;;;;;;;29.63;28.28;92495.34;6221117;23;20035;-78
2021/07/17 12:33:44;;;;;;;0.60;0.60;;;;;;;29.22;28.85;92493.53;6193498;23;20013;-78
2021/07/17 12:36:17;;;;;;;0.88;0.88;;;;;;;29.38;29.32;92486.81;6187257;23;20432;-78
2021/07/17 12:38:55;;;;;;;0.60;0.60;;;;;;;29.52;28.61;92497.41;6215754;23;20016;-79
2021/07/17 12:41:32;;;;;;;0.60;0.60;;;;;;;29.54;28.28;92478.88;6213353;23;20439;-79
2021/07/17 12:44:04;;;;;;;1.27;0.80;;;;;;;29.75;29.46;92487.91;6214534;23;20004;-79
2021/07/17 12:46:34;;;;;;;0.60;0.60;;;;;;;29.50;28.92;92480.88;6214460;23;20017;-79
2021/07/17 12:49:03;;;;;;;0.52;0.52;;;;;;;29.10;28.66;92491.38;6212442;23;20016;-77
2021/07/17 12:51:33;;;;;;;0.50;0.50;;;;;;;28.93;28.07;92495.00;6185391;23;20044;-77
2021/07/17 12:54:01;;;;;;;0.73;0.60;;;;;;;28.62;29.53;92493.00;6186241;23;20021;-77
2021/07/17 12:56:47;;;;;;;1.23;0.80;;;;;;;28.37;30.14;92492.41;6212143;23;20012;-77
2021/07/17 12:59:18;;;;;;;2.13;0.98;;;;;;;28.32;28.79;92490.91;6185761;23;20018;-77
2021/07/17 13:01:55;;;;;;;0.63;0.60;;;;;;;28.84;29.54;92487.38;6212607;23;20499;-77
2021/07/17 13:04:26;;;;;;;0.93;0.82;;;;;;;29.22;27.45;92482.00;6211547;23;20567;-78
2021/07/17 13:07:03;;;;;;;0.52;0.52;;;;;;;29.25;28.54;92479.25;6211861;23;20018;-80
2021/07/17 13:09:31;;;;;;;1.38;1.10;;;;;;;29.59;28.10;92480.38;6185427;23;20023;-78
2021/07/17 13:11:59;;;;;;;0.77;0.77;;;;;;;29.66;28.12;92475.66;6183565;23;20083;-79
2021/07/17 13:14:25;;;;;;;0.63;0.63;;;;;;;29.57;26.28;92472.69;6211742;23;20023;-78
2021/07/17 13:16:52;;;;;;;0.77;0.68;;;;;;;29.46;28.45;92477.47;6211303;23;20028;-78
2021/07/17 13:19:21;;;;;;;1.00;0.85;;;;;;;29.38;28.35;92459.84;6210339;23;20032;-78
2021/07/17 13:21:46;;;;;;;1.15;0.82;;;;;;;29.97;29.31;92478.31;6210019;23;20047;-78
2021/07/17 13:24:14;;;;;;;0.60;0.60;;;;;;;29.46;29.32;92467.44;6185560;23;20021;-78
2021/07/17 13:26:55;;;;;;;0.47;0.47;;;;;;;29.60;26.97;92466.47;6210133;23;20120;-78
2021/07/17 13:29:28;;;;;;;0.50;0.50;;;;;;;29.87;27.59;92466.50;6209756;23;20012;-77
2021/07/17 13:31:55;;;;;;;0.85;0.60;;;;;;;30.38;28.30;92479.25;6211045;23;20023;-77
2021/07/17 13:34:24;;;;;;;0.75;0.75;;;;;;;30.42;27.18;92471.84;6185233;23;20015;-79
2021/07/17 13:37:00;;;;;;;0.80;0.80;;;;;;;30.33;28.70;92479.72;6210699;23;20475;-78
2021/07/17 13:39:29;;;;;;;0.55;0.55;;;;;;;29.56;28.08;92491.97;6212253;23;20008;-78
2021/07/17 13:42:10;;;;;;;0.45;0.45;;;;;;;29.80;26.35;92484.75;6210419;23;20019;-79
2021/07/17 13:44:36;;;;;;;1.08;0.88;;;;;;;29.44;27.68;92493.28;6211973;23;20566;-81
2021/07/17 13:47:13;;;;;;;1.00;0.80;;;;;;;29.59;27.63;92478.44;6212730;23;20008;-78
2021/07/17 13:49:40;;;;;;;0.85;0.70;;;;;;;28.97;29.04;92485.72;6210917;23;20031;-77
2021/07/17 13:52:44;;;;;;;0.63;0.60;;;;;;;29.45;29.08;92492.88;6212023;23;20015;-77
2021/07/17 13:55:10;;;;;;;0.98;0.82;;;;;;;29.58;28.80;92484.22;6213101;23;20012;-77
2021/07/17 13:57:42;;;;;;;0.75;0.65;;;;;;;29.10;27.65;92488.69;6211905;23;20016;-77
2021/07/17 14:00:26;;;;;;;0.77;0.65;;;;;;;29.59;28.83;92496.56;6184921;23;20012;-78
2021/07/17 14:02:52;;;;;;;0.63;0.55;;;;;;;29.10;29.25;92487.94;6210962;23;20039;-78
2021/07/17 14:05:18;;;;;;;0.40;0.40;;;;;;;28.29;29.41;92480.22;6186060;23;20020;-78
2021/07/17 14:07:44;;;;;;;0.55;0.55;;;;;;;28.12;29.97;92487.25;6210584;23;20011;-78
2021/07/17 14:10:11;;;;;;;0.80;0.80;;;;;;;28.36;31.28;92480.13;6185034;23;20340;-78
2021/07/17 14:12:37;;;;;;;0.82;0.65;;;;;;;28.34;30.25;92480.53;6210237;23;20067;-78
2021/07/17 14:15:06;;;;;;;0.57;0.52;;;;;;;28.32;31.13;92490.91;6211715;23;20467;-78
2021/07/17 14:17:32;;;;;;;1.08;0.80;;;;;;;28.41;30.80;92482.38;6212853;23;20019;-78
2021/07/17 14:19:58;;;;;;;1.15;0.70;;;;;;;28.46;29.32;92476.56;6185785;23;20005;-79
2021/07/17 14:22:23;;;;;;;0.88;0.77;;;;;;;28.07;32.81;92482.28;6212417;23;20017;-78
2021/07/17 14:24:50;;;;;;;1.00;0.88;;;;;;;27.74;30.88;92481.72;6212212;23;20462;-78
2021/07/17 14:27:17;;;;;;;0.90;0.70;;;;;;;28.13;32.12;92478.03;6211642;23;20090;-78
2021/07/17 14:29:42;;;;;;;1.13;0.85;;;;;;;28.06;32.21;92494.22;6185848;23;20024;-77
2021/07/17 14:32:08;;;;;;;0.47;0.47;;;;;;;27.90;32.11;92484.72;6185416;23;20033;-78
2021/07/17 14:34:35;;;;;;;0.65;0.65;;;;;;;27.54;32.14;92476.84;6212137;23;20016;-77
2021/07/17 14:37:01;;;;;;;1.20;0.63;;;;;;;27.35;32.09;92498.84;6212536;23;20024;-78
2021/07/17 14:39:27;;;;;;;1.08;0.75;;;;;;;27.46;32.36;92474.59;6215492;23;20500;-78
2021/07/17 14:41:53;;;;;;;0.50;0.50;;;;;;;27.27;31.79;92484.69;6188556;23;20075;-78
2021/07/17 14:44:19;;;;;;;2.17;1.00;;;;;;;27.27;31.83;92478.50;6215901;23;20044;-78
2021/07/17 14:46:44;;;;;;;0.65;0.63;;;;;;;27.25;32.75;92488.91;6212228;23;20013;-77
2021/07/17 14:49:10;;;;;;;0.75;0.75;;;;;;;27.20;32.43;92496.22;6213707;23;20040;-76
2021/07/17 14:51:36;;;;;;;0.40;0.40;;;;;;;26.71;32.81;92476.41;6185719;23;20009;-76
2021/07/17 14:54:02;;;;;;;1.48;1.05;;;;;;;27.01;34.05;92477.84;6160591;23;20016;-76
2021/07/17 14:56:30;;;;;;;0.70;0.70;;;;;;;27.08;33.75;92480.47;6185743;23;20024;-78
2021/07/17 14:58:56;;;;;;;1.13;0.80;;;;;;;27.04;32.60;92478.97;6213219;23;20012;-77
2021/07/17 15:01:22;;;;;;;0.57;0.50;;;;;;;26.76;32.17;92484.03;6185825;23;20009;-75
2021/07/17 15:03:48;;;;;;;0.65;0.52;;;;;;;26.96;33.61;92481.69;6159994;23;20088;-76
2021/07/17 15:06:15;;;;;;;0.50;0.50;;;;;;;27.10;33.12;92486.25;6212329;23;20074;-76
2021/07/17 15:08:40;;;;;;;0.75;0.70;;;;;;;27.36;32.30;92482.31;6186030;23;20048;-78
2021/07/17 15:11:07;;;;;;;0.50;0.50;;;;;;;27.53;32.30;92491.44;6161131;23;20060;-77
2021/07/17 15:13:34;;;;;;;0.82;0.80;;;;;;;27.37;32.69;92480.41;6185783;23;20433;-78
2021/07/17 15:16:00;;;;;;;1.05;0.60;;;;;;;27.37;31.79;92477.72;6186234;23;20055;-76
2021/07/17 15:18:26;;;;;;;1.08;0.80;;;;;;;27.31;31.84;92479.28;6212976;23;20012;-77
2021/07/17 15:20:53;;;;;;;0.80;0.63;;;;;;;27.21;32.08;92480.84;6185322;23;20047;-76
2021/07/17 15:23:19;;;;;;;1.08;0.60;;;;;;;27.22;31.32;92487.00;6160541;23;20039;-75
2021/07/17 15:25:46;;;;;;;1.38;0.88;;;;;;;27.03;32.57;92475.53;6160869;23;20428;-76
2021/07/17 15:28:13;;;;;;;0.40;0.40;;;;;;;27.14;31.75;92481.63;6185722;23;20475;-77
2021/07/17 15:30:40;;;;;;;0.40;0.40;;;;;;;26.41;32.31;92484.84;6211764;23;20440;-78
2021/07/17 15:33:05;;;;;;;0.55;0.55;;;;;;;26.43;32.80;92481.78;6185321;23;20021;-77
2021/07/17 15:35:36;;;;;;;0.40;0.40;;;;;;;26.61;32.63;92484.47;6185366;23;20107;-78
2021/07/17 15:38:03;;;;;;;0.50;0.50;;;;;;;26.85;32.88;92485.56;6185206;23;20021;-78
2021/07/17 15:40:30;;;;;;;0.80;0.70;;;;;;;27.14;33.59;92492.38;6212781;23;20023;-78
2021/07/17 15:42:56;;;;;;;1.05;0.70;;;;;;;27.39;33.35;92476.16;6212786;23;20009;-77
2021/07/17 15:45:25;;;;;;;0.85;0.60;;;;;;;27.44;31.25;92472.28;6161980;23;20005;-78
2021/07/17 15:47:55;;;;;;;0.63;0.60;;;;;;;27.78;32.76;92493.22;6187132;23;20020;-77
2021/07/17 15:50:22;;;;;;;0.57;0.57;;;;;;;27.68;31.30;92494.06;6212610;23;20023;-78
2021/07/17 15:52:49;;;;;;;0.95;0.80;;;;;;;27.53;31.41;92486.06;6186175;23;20031;-78
2021/07/17 15:55:16;;;;;;;19.60;12.77;;;;;;;27.76;32.00;92482.09;6187252;23;20017;-78
2021/07/17 15:57:42;;;;;;;13.32;8.85;;;;;;;27.85;30.67;92477.06;6185243;23;20036;-78
2021/07/17 16:00:10;;;;;;;1.85;1.25;;;;;;;27.77;32.83;92473.63;6188824;23;20020;-75
2021/07/17 16:02:41;;;;;;;5.93;4.15;;;;;;;27.97;31.83;92481.97;6212128;23;20005;-79
2021/07/17 16:05:08;;;;;;;83.93;63.30;;;;;;;27.97;31.61;92481.97;6213915;23;20024;-80
2021/07/17 16:07:34;;;;;;;52.80;40.35;;;;;;;28.33;30.88;92476.31;6187877;23;20016;-78
2021/07/17 16:10:01;;;;;;;8.27;5.40;;;;;;;28.12;31.19;92465.72;6215292;23;20000;-78
2021/07/17 16:12:27;;;;;;;14.48;10.75;;;;;;;28.47;31.03;92469.28;6158180;23;20459;-78
2021/07/17 16:14:53;;;;;;;100.70;64.32;;;;;;;28.28;30.08;92476.75;6133167;23;20032;-79
2021/07/17 16:17:18;;;;;;;17.92;10.38;;;;;;;27.90;30.76;92478.56;6185832;23;20103;-79
2021/07/17 16:19:44;;;;;;;3.28;1.60;;;;;;;27.62;30.89;92472.94;6156899;23;20005;-78
2021/07/17 16:22:10;;;;;;;0.52;0.50;;;;;;;27.80;30.92;92464.00;6133363;23;20017;-78
2021/07/17 16:24:36;;;;;;;0.50;0.50;;;;;;;27.32;32.09;92465.44;6183057;23;20017;-77
2021/07/17 16:27:02;;;;;;;7.35;5.38;;;;;;;27.46;31.04;92456.53;6158990;23;20017;-79
2021/07/17 16:29:28;;;;;;;5.00;3.45;;;;;;;27.22;31.93;92465.50;6158579;23;20463;-78
2021/07/17 16:31:54;;;;;;;7.75;4.53;;;;;;;27.43;31.40;92467.31;6159030;23;20021;-79
2021/07/17 16:34:21;;;;;;;2.60;1.67;;;;;;;27.44;31.84;92450.78;6185027;23;20324;-80
2021/07/17 16:36:52;;;;;;;3.03;1.58;;;;;;;27.27;31.52;92459.72;6158985;23;20356;-77
2021/07/17 16:39:19;;;;;;;20.73;12.27;;;;;;;27.12;31.73;92461.69;6134870;23;20352;-77
2021/07/17 16:41:45;;;;;;;6.63;5.05;;;;;;;27.06;31.89;92457.84;6185260;23;20033;-82
2021/07/17 16:44:11;;;;;;;2.03;1.48;;;;;;;26.81;31.91;92457.97;6183647;23;20036;-78
2021/07/17 16:46:37;;;;;;;21.55;11.80;;;;;;;26.89;31.67;92464.84;6157525;23;20019;-78
2021/07/17 16:49:03;;;;;;;3.78;2.28;;;;;;;26.72;31.53;92459.13;6157244;23;20083;-78
2021/07/17 16:51:29;;;;;;;5.65;3.33;;;;;;;26.41;32.43;92460.69;6183595;23;20145;-79
2021/07/17 16:53:57;;;;;;;6.35;3.45;;;;;;;26.33;32.29;92462.63;6158094;23;20016;-78
2021/07/17 16:56:23;;;;;;;5.93;3.38;;;;;;;26.23;33.78;92451.91;6185813;23;20017;-78
2021/07/17 16:58:50;;;;;;;2.17;1.30;;;;;;;26.11;32.44;92466.47;6132560;23;20036;-78
2021/07/17 17:01:16;;;;;;;19.23;7.28;;;;;;;26.12;33.26;92459.94;6180599;23;20017;-78
2021/07/17 17:03:41;;;;;;;12.50;6.63;;;;;;;26.13;32.67;92459.56;6182104;23;20011;-78
2021/07/17 17:06:07;;;;;;;42.60;21.05;;;;;;;26.19;32.23;92462.66;6132385;23;20019;-78
2021/07/17 17:08:33;;;;;;;1.35;0.82;;;;;;;26.27;32.40;92455.34;6182482;23;20303;-78
2021/07/17 17:10:58;;;;;;;14.82;8.23;;;;;;;26.24;33.70;92467.63;6187045;23;20029;-79
2021/07/17 17:13:24;;;;;;;3.47;2.28;;;;;;;26.33;33.02;92465.31;6213652;23;20016;-78
2021/07/17 17:15:52;;;;;;;0.90;0.63;;;;;;;26.14;32.83;92466.50;6213055;23;20012;-78
2021/07/17 17:18:19;;;;;;;1.05;0.77;;;;;;;25.80;33.46;92457.25;6212745;23;20450;-78
2021/07/17 17:20:48;;;;;;;1.17;0.65;;;;;;;25.90;34.07;92473.38;6211901;23;20016;-78
2021/07/17 17:23:14;;;;;;;0.55;0.55;;;;;;;25.80;33.82;92466.03;6215062;23;20001;-78
2021/07/17 17:25:40;;;;;;;1.95;0.75;;;;;;;25.60;34.53;92480.97;6211673;23;20456;-78
2021/07/17 17:28:06;;;;;;;0.77;0.52;;;;;;;25.49;34.25;92476.34;6185109;23;20020;-77
2021/07/17 17:30:33;;;;;;;3.65;0.85;;;;;;;25.58;34.34;92472.53;6211431;23;20047;-78
2021/07/17 17:32:59;;;;;;;0.68;0.60;;;;;;;25.54;33.40;92473.31;6211884;23;20459;-78
2021/07/17 17:35:27;;;;;;;1.02;0.60;;;;;;;25.49;33.71;92465.63;6188631;23;20016;-79
2021/07/17 17:37:53;;;;;;;1.50;0.57;;;;;;;25.45;33.69;92467.53;6189330;23;20127;-78
2021/07/17 17:40:19;;;;;;;0.80;0.55;;;;;;;25.29;33.99;92465.22;6213126;23;20452;-77
2021/07/17 17:42:46;;;;;;;0.98;0.73;;;;;;;25.25;34.75;92482.41;6212569;23;20020;-76
2021/07/17 17:45:14;;;;;;;1.25;0.85;;;;;;;25.15;35.27;92470.47;6186828;23;20117;-78
2021/07/17 17:47:39;;;;;;;0.70;0.63;;;;;;;25.12;35.46;92476.59;6211853;23;20023;-78
2021/07/17 17:50:08;;;;;;;0.95;0.65;;;;;;;25.10;35.54;92476.19;6187257;23;20016;-78
2021/07/17 17:52:34;;;;;;;0.57;0.50;;;;;;;25.10;35.62;92485.00;6211036;23;20024;-79
2021/07/17 17:55:00;;;;;;;0.60;0.45;;;;;;;24.95;35.57;92472.72;6211084;23;20016;-77
2021/07/17 17:57:26;;;;;;;1.38;0.95;;;;;;;24.84;35.23;92477.25;6212147;23;20392;-78
2021/07/17 17:59:52;;;;;;;0.65;0.45;;;;;;;24.87;36.04;92485.28;6213108;23;20412;-77
2021/07/17 18:02:18;;;;;;;0.40;0.40;;;;;;;24.77;35.60;92482.56;6184819;23;20099;-78
2021/07/17 18:04:45;;;;;;;0.28;0.28;;;;;;;24.72;35.41;92487.16;6186588;23;20108;-78
2021/07/17 18:07:15;;;;;;;0.68;0.60;;;;;;;24.56;35.55;92486.66;6212935;23;20347;-78
2021/07/17 18:09:42;;;;;;;0.28;0.28;;;;;;;24.46;35.96;92488.09;6187354;23;20044;-78
2021/07/17 18:12:09;;;;;;;0.20;0.20;;;;;;;24.31;36.35;92478.44;6211147;23;20107;-77
2021/07/17 18:14:37;;;;;;;0.82;0.63;;;;;;;24.24;36.96;92484.50;6211024;23;20321;-78
2021/07/17 18:17:05;;;;;;;1.45;1.05;;;;;;;24.19;36.31;92492.88;6210958;23;20084;-76
2021/07/17 18:19:31;;;;;;;0.80;0.65;;;;;;;24.10;35.95;92503.91;6209689;23;20005;-77
2021/07/17 18:21:56;;;;;;;0.10;0.10;;;;;;;24.04;35.75;92491.22;6210501;23;20019;-77
2021/07/17 18:24:22;;;;;;;0.73;0.45;;;;;;;23.91;35.96;92501.44;6209969;23;20012;-77
2021/07/17 18:26:48;;;;;;;0.55;0.40;;;;;;;23.79;37.52;92509.72;6208694;23;20017;-79
2021/07/17 18:29:14;;;;;;;1.52;0.95;;;;;;;23.69;36.49;92503.91;6212949;23;20348;-76
2021/07/17 18:31:41;;;;;;;0.50;0.50;;;;;;;23.68;37.22;92520.28;6212954;23;20067;-76
2021/07/17 18:34:07;;;;;;;0.65;0.57;;;;;;;23.64;37.82;92508.78;6212680;23;19996;-77
2021/07/17 18:36:33;;;;;;;2.20;1.20;;;;;;;23.59;37.87;92522.50;6164615;23;20024;-76
2021/07/17 18:38:59;;;;;;;1.48;1.17;;;;;;;23.51;38.17;92516.31;6187542;23;20020;-76